WZZ2020 LJLJ-LDZA
Flight info
| Callsign | WZZ2020 |
|---|---|
| Flight time | 0h 23m |
| Altitude | 13000 |
| Route | MODRO DCT KOTOR |
| Aircraft | A321/M-SDE3FGHIRWY/LB1 |
Departure
| Time | 2026-04-30 13:07 |
|---|---|
| Airport | Ljubljana Jože Pučnik Airport (LJLJ) |
Arrival
| Time | 2026-04-30 13:31 |
|---|---|
| Airport | Zagreb Franjo Tuđman International Airport (LDZA) |
| Time | Latitude | Longitude | Altitude | Speed | Heading |
|---|---|---|---|---|---|
| 2026-04-30 12:41 | 46.23145 | 14.45167 | 1270 ft | 0 kts | 37° |
| 2026-04-30 12:58 | 46.23145 | 14.45166 | 1293 ft | 1 kts | 37° |
| 2026-04-30 12:58 | 46.23127 | 14.45144 | 1273 ft | 4 kts | 53° |
| 2026-04-30 12:59 | 46.23116 | 14.45110 | 1268 ft | 4 kts | 89° |
| 2026-04-30 12:59 | 46.23120 | 14.45085 | 1269 ft | 0 kts | 126° |
| 2026-04-30 13:01 | 46.23117 | 14.45092 | 1268 ft | 3 kts | 126° |
| 2026-04-30 13:01 | 46.23077 | 14.45170 | 1265 ft | 14 kts | 126° |
| 2026-04-30 13:02 | 46.23003 | 14.45155 | 1269 ft | 12 kts | 217° |
| 2026-04-30 13:02 | 46.22925 | 14.45138 | 1264 ft | 13 kts | 141° |
| 2026-04-30 13:02 | 46.22865 | 14.45252 | 1263 ft | 16 kts | 127° |
| 2026-04-30 13:02 | 46.22769 | 14.45441 | 1262 ft | 19 kts | 127° |
| 2026-04-30 13:03 | 46.22714 | 14.45547 | 1257 ft | 21 kts | 127° |
| 2026-04-30 13:03 | 46.22624 | 14.45726 | 1259 ft | 23 kts | 127° |
| 2026-04-30 13:03 | 46.22525 | 14.45918 | 1244 ft | 25 kts | 126° |
| 2026-04-30 13:03 | 46.22422 | 14.46130 | 1243 ft | 27 kts | 126° |
| 2026-04-30 13:04 | 46.22308 | 14.46352 | 1242 ft | 28 kts | 126° |
| 2026-04-30 13:04 | 46.22188 | 14.46586 | 1229 ft | 30 kts | 126° |
| 2026-04-30 13:04 | 46.22070 | 14.46815 | 1223 ft | 27 kts | 127° |
| 2026-04-30 13:04 | 46.21956 | 14.47034 | 1218 ft | 28 kts | 127° |
| 2026-04-30 13:05 | 46.21839 | 14.47265 | 1213 ft | 29 kts | 126° |
| 2026-04-30 13:05 | 46.21728 | 14.47482 | 1207 ft | 17 kts | 126° |
| 2026-04-30 13:05 | 46.21670 | 14.47594 | 1204 ft | 12 kts | 139° |
| 2026-04-30 13:06 | 46.21525 | 14.47470 | 1202 ft | 15 kts | 255° |
| 2026-04-30 13:06 | 46.21563 | 14.47342 | 1206 ft | 13 kts | 306° |
| 2026-04-30 13:06 | 46.21664 | 14.47144 | 1212 ft | 55 kts | 307° |
| 2026-04-30 13:06 | 46.22033 | 14.46419 | 1230 ft | 124 kts | 306° |
| 2026-04-30 13:07 | 46.22659 | 14.45190 | 1286 ft | 175 kts | 306° |
| 2026-04-30 13:07 | 46.23364 | 14.43796 | 2003 ft | 171 kts | 306° |
| 2026-04-30 13:07 | 46.23863 | 14.42247 | 2787 ft | 176 kts | 277° |
| 2026-04-30 13:07 | 46.23655 | 14.40473 | 3330 ft | 189 kts | 241° |
| 2026-04-30 13:08 | 46.22713 | 14.39091 | 3622 ft | 202 kts | 203° |
| 2026-04-30 13:08 | 46.21301 | 14.38851 | 3883 ft | 213 kts | 164° |
| 2026-04-30 13:08 | 46.19880 | 14.39629 | 4333 ft | 223 kts | 156° |
| 2026-04-30 13:08 | 46.18395 | 14.40312 | 5260 ft | 224 kts | 160° |
| 2026-04-30 13:09 | 46.16841 | 14.40712 | 6001 ft | 235 kts | 181° |
| 2026-04-30 13:09 | 46.15212 | 14.40181 | 6671 ft | 245 kts | 194° |
| 2026-04-30 13:09 | 46.13534 | 14.39518 | 7255 ft | 259 kts | 193° |
| 2026-04-30 13:09 | 46.11715 | 14.38830 | 7614 ft | 282 kts | 193° |
| 2026-04-30 13:10 | 46.09762 | 14.38111 | 8165 ft | 295 kts | 192° |
| 2026-04-30 13:10 | 46.07717 | 14.37861 | 8914 ft | 298 kts | 171° |
| 2026-04-30 13:10 | 46.05741 | 14.38709 | 9691 ft | 298 kts | 147° |
| 2026-04-30 13:10 | 46.04127 | 14.40540 | 10342 ft | 296 kts | 124° |
| 2026-04-30 13:11 | 46.02867 | 14.42977 | 10666 ft | 315 kts | 121° |
| 2026-04-30 13:11 | 46.01548 | 14.45636 | 10841 ft | 338 kts | 121° |
| 2026-04-30 13:11 | 46.00144 | 14.48465 | 11135 ft | 355 kts | 123° |
| 2026-04-30 13:11 | 45.98688 | 14.51375 | 11751 ft | 361 kts | 123° |
| 2026-04-30 13:12 | 45.97204 | 14.54318 | 12367 ft | 367 kts | 122° |
| 2026-04-30 13:12 | 45.95692 | 14.57302 | 13034 ft | 372 kts | 122° |
| 2026-04-30 13:12 | 45.94153 | 14.60330 | 13675 ft | 378 kts | 123° |
| 2026-04-30 13:13 | 45.91032 | 14.66442 | 14949 ft | 386 kts | 123° |
| 2026-04-30 13:13 | 45.89439 | 14.69566 | 15269 ft | 388 kts | 124° |
| 2026-04-30 13:13 | 45.86172 | 14.75973 | 15362 ft | 407 kts | 123° |
| 2026-04-30 13:14 | 45.84493 | 14.79259 | 15350 ft | 409 kts | 124° |
| 2026-04-30 13:14 | 45.82808 | 14.82544 | 15360 ft | 409 kts | 124° |
| 2026-04-30 13:14 | 45.79446 | 14.89112 | 15359 ft | 408 kts | 124° |
| 2026-04-30 13:15 | 45.77772 | 14.92382 | 15306 ft | 405 kts | 124° |
| 2026-04-30 13:15 | 45.74524 | 14.98683 | 14810 ft | 385 kts | 124° |
| 2026-04-30 13:15 | 45.72934 | 15.01765 | 14563 ft | 383 kts | 124° |
| 2026-04-30 13:16 | 45.71357 | 15.04828 | 14322 ft | 381 kts | 124° |
| 2026-04-30 13:16 | 45.69787 | 15.07874 | 14093 ft | 379 kts | 123° |
| 2026-04-30 13:16 | 45.68225 | 15.10901 | 13820 ft | 377 kts | 124° |
| 2026-04-30 13:17 | 45.65120 | 15.16901 | 13284 ft | 373 kts | 124° |
| 2026-04-30 13:17 | 45.63583 | 15.19877 | 13018 ft | 372 kts | 124° |
| 2026-04-30 13:17 | 45.60554 | 15.25729 | 12458 ft | 365 kts | 123° |
| 2026-04-30 13:18 | 45.59030 | 15.28660 | 11930 ft | 360 kts | 123° |
| 2026-04-30 13:18 | 45.56102 | 15.34277 | 11091 ft | 346 kts | 124° |
| 2026-04-30 13:18 | 45.54695 | 15.36973 | 10965 ft | 332 kts | 123° |
| 2026-04-30 13:19 | 45.53341 | 15.39562 | 10840 ft | 319 kts | 123° |
| 2026-04-30 13:19 | 45.52041 | 15.42047 | 10719 ft | 307 kts | 122° |
| 2026-04-30 13:19 | 45.50789 | 15.44438 | 10475 ft | 296 kts | 123° |
| 2026-04-30 13:19 | 45.49576 | 15.46759 | 9943 ft | 287 kts | 123° |
| 2026-04-30 13:20 | 45.48389 | 15.49025 | 9805 ft | 286 kts | 123° |
| 2026-04-30 13:20 | 45.47199 | 15.51309 | 9385 ft | 289 kts | 122° |
| 2026-04-30 13:20 | 45.46078 | 15.53650 | 9076 ft | 282 kts | 112° |
| 2026-04-30 13:20 | 45.45505 | 15.56259 | 8727 ft | 273 kts | 93° |
| 2026-04-30 13:21 | 45.45574 | 15.58891 | 8065 ft | 263 kts | 74° |
| 2026-04-30 13:21 | 45.46250 | 15.61264 | 7381 ft | 256 kts | 56° |
| 2026-04-30 13:21 | 45.47299 | 15.63284 | 6869 ft | 253 kts | 52° |
| 2026-04-30 13:22 | 45.49414 | 15.67316 | 6001 ft | 253 kts | 53° |
| 2026-04-30 13:22 | 45.50465 | 15.69337 | 5467 ft | 253 kts | 53° |
| 2026-04-30 13:22 | 45.52458 | 15.73294 | 4735 ft | 233 kts | 58° |
| 2026-04-30 13:23 | 45.53346 | 15.75119 | 4669 ft | 216 kts | 50° |
| 2026-04-30 13:23 | 45.55272 | 15.78125 | 4512 ft | 190 kts | 46° |
| 2026-04-30 13:24 | 45.56878 | 15.80539 | 4376 ft | 147 kts | 46° |
| 2026-04-30 13:24 | 45.58231 | 15.82576 | 4232 ft | 140 kts | 46° |
| 2026-04-30 13:25 | 45.59567 | 15.84588 | 4104 ft | 140 kts | 46° |
| 2026-04-30 13:25 | 45.60899 | 15.86597 | 3925 ft | 139 kts | 46° |
| 2026-04-30 13:26 | 45.62894 | 15.89607 | 3389 ft | 140 kts | 46° |
| 2026-04-30 13:26 | 45.64217 | 15.91606 | 3012 ft | 136 kts | 47° |
| 2026-04-30 13:27 | 45.65529 | 15.93590 | 2641 ft | 137 kts | 46° |
| 2026-04-30 13:28 | 45.67488 | 15.96553 | 2077 ft | 136 kts | 47° |
| 2026-04-30 13:28 | 45.68786 | 15.98519 | 1700 ft | 134 kts | 46° |
| 2026-04-30 13:28 | 45.69438 | 15.99507 | 1508 ft | 136 kts | 47° |
| 2026-04-30 13:29 | 45.70728 | 16.01462 | 1130 ft | 135 kts | 47° |
| 2026-04-30 13:29 | 45.72031 | 16.03440 | 743 ft | 136 kts | 46° |
| 2026-04-30 13:30 | 45.73965 | 16.06382 | 363 ft | 126 kts | 45° |
| 2026-04-30 13:31 | 45.74723 | 16.07527 | 362 ft | 42 kts | 46° |
| 2026-04-30 13:31 | 45.74803 | 16.08045 | 360 ft | 17 kts | 218° |
| 2026-04-30 13:32 | 45.74615 | 16.07754 | 358 ft | 22 kts | 227° |
| 2026-04-30 13:32 | 45.74442 | 16.07825 | 356 ft | 16 kts | 136° |
| 2026-04-30 13:33 | 45.74297 | 16.07838 | 359 ft | 8 kts | 189° |
| 2026-04-30 13:33 | 45.74279 | 16.07861 | 362 ft | 4 kts | 131° |
| 2026-04-30 13:34 | 45.74263 | 16.07885 | 362 ft | 3 kts | 135° |
| 2026-04-30 13:34 | 45.74247 | 16.07907 | 363 ft | 0 kts | 135° |